Time;durP1;ratioP1;P1;durP2;ratioP2;P2;SDS_P1;SDS_P2;PMS_P1;PMS_P2;Temp;Humidity;BMP_temperature;BMP_pressure;BME280_temperature;BME280_humidity;BME280_pressure;Samples;Min_cycle;Max_cycle;Signal;HPM_P1;HPM_P2
2021/03/23 00:00:33;;;;;;;20.20;11.98;;;7.20;96.50;;;;;;5029575;28;20029;-77
2021/03/23 00:03:13;;;;;;;22.02;11.90;;;7.20;96.90;;;;;;5027453;28;20029;-77
2021/03/23 00:05:40;;;;;;;19.45;10.80;;;;;;;;;;5022516;28;20034;-76
2021/03/23 00:08:24;;;;;;;18.90;10.63;;;7.10;96.40;;;;;;5025474;28;20055;-77
2021/03/23 00:10:50;;;;;;;17.10;9.82;;;7.10;96.60;;;;;;5022428;28;20338;-75
2021/03/23 00:13:16;;;;;;;21.67;10.00;;;7.10;96.40;;;;;;5023988;28;20044;-76
2021/03/23 00:15:43;;;;;;;18.70;10.30;;;7.10;96.20;;;;;;5026611;28;20041;-79
2021/03/23 00:18:10;;;;;;;21.48;10.50;;;7.20;96.30;;;;;;5022409;28;20442;-80
2021/03/23 00:20:38;;;;;;;17.40;9.77;;;7.10;96.30;;;;;;5025236;28;20095;-77
2021/03/23 00:23:04;;;;;;;17.13;10.65;;;7.10;96.60;;;;;;5018331;28;20087;-78
2021/03/23 00:25:30;;;;;;;21.70;11.60;;;7.10;96.60;;;;;;5020554;28;20487;-77
2021/03/23 00:27:56;;;;;;;20.20;10.63;;;7.00;96.90;;;;;;5025338;28;20072;-78
2021/03/23 00:30:22;;;;;;;19.80;9.93;;;;;;;;;;5022235;28;20182;-77
2021/03/23 00:32:48;;;;;;;18.23;9.77;;;5.50;96.20;;;;;;5022686;28;20045;-77
2021/03/23 00:35:15;;;;;;;18.33;10.32;;;7.00;96.70;;;;;;5022682;28;20046;-77
2021/03/23 00:37:41;;;;;;;18.85;9.75;;;7.10;96.60;;;;;;5014997;28;20055;-76
2021/03/23 00:40:12;;;;;;;19.80;10.80;;;7.10;96.60;;;;;;5021579;28;20126;-78
2021/03/23 00:42:38;;;;;;;17.83;10.32;;;7.10;96.60;;;;;;5038533;28;20034;-75
2021/03/23 00:45:05;;;;;;;19.70;10.40;;;7.00;96.70;;;;;;5024515;28;20038;-76
2021/03/23 00:47:30;;;;;;;16.85;9.45;;;7.00;96.80;;;;;;5024008;28;21845;-78
2021/03/23 00:49:56;;;;;;;18.40;10.15;;;7.00;96.70;;;;;;5037902;28;20042;-76
2021/03/23 00:52:22;;;;;;;16.88;10.02;;;6.90;96.90;;;;;;5027028;28;20056;-77
2021/03/23 00:54:50;;;;;;;18.15;10.48;;;7.00;96.70;;;;;;5028551;28;20125;-79
2021/03/23 00:57:17;;;;;;;16.67;9.30;;;7.20;96.60;;;;;;5025860;28;20041;-77
2021/03/23 00:59:42;;;;;;;18.15;9.57;;;6.90;96.40;;;;;;5018490;28;20057;-78
2021/03/23 01:02:08;;;;;;;18.90;9.40;;;7.00;96.60;;;;;;5047415;28;20041;-77
2021/03/23 01:04:34;;;;;;;19.02;10.18;;;7.00;96.30;;;;;;5032646;28;20029;-79
2021/03/23 01:06:59;;;;;;;18.08;10.20;;;7.00;96.20;;;;;;5020952;28;20387;-77
2021/03/23 01:09:25;;;;;;;16.90;9.65;;;7.00;96.70;;;;;;5032909;28;20033;-79
2021/03/23 01:11:51;;;;;;;18.55;9.73;;;;;;;;;;5006103;28;20593;-77
2021/03/23 01:14:17;;;;;;;19.00;9.73;;;7.00;96.20;;;;;;5028371;28;20117;-78
2021/03/23 01:16:43;;;;;;;18.52;9.55;;;7.00;97.00;;;;;;5028709;28;20099;-77
2021/03/23 01:19:08;;;;;;;18.02;9.63;;;7.00;96.50;;;;;;5028095;28;20041;-77
2021/03/23 01:21:34;;;;;;;17.80;9.27;;;7.00;95.90;;;;;;5020005;28;20037;-77
2021/03/23 01:24:00;;;;;;;15.93;9.02;;;7.00;95.60;;;;;;5026064;28;20171;-79
2021/03/23 01:26:25;;;;;;;17.80;10.52;;;7.00;95.20;;;;;;5030591;28;20455;-78
2021/03/23 01:28:51;;;;;;;18.98;9.20;;;7.10;96.10;;;;;;5030385;28;20347;-77
2021/03/23 01:31:16;;;;;;;18.98;10.07;;;7.10;96.10;;;;;;5004656;28;20049;-76
2021/03/23 01:33:42;;;;;;;16.63;9.88;;;7.00;95.60;;;;;;5009979;28;20128;-77
2021/03/23 01:36:08;;;;;;;18.83;9.95;;;7.00;94.90;;;;;;5024754;28;20519;-77
2021/03/23 01:38:34;;;;;;;18.17;9.95;;;4.30;94.30;;;;;;5026267;28;20046;-78
2021/03/23 01:41:00;;;;;;;18.27;8.50;;;7.10;95.20;;;;;;5030135;28;20463;-76
2021/03/23 01:43:30;;;;;;;17.63;8.93;;;7.00;95.10;;;;;;5036023;28;20495;-75
2021/03/23 01:48:33;;;;;;;17.00;9.48;;;7.10;95.00;;;;;;5264604;23;20105;-79
2021/03/23 01:51:07;;;;;;;17.17;9.13;;;7.10;95.30;;;;;;5030691;28;20036;-78
2021/03/23 01:53:38;;;;;;;16.58;9.10;;;7.10;95.40;;;;;;5019426;28;20533;-78
2021/03/23 01:56:08;;;;;;;16.83;9.52;;;7.10;95.50;;;;;;5023488;28;20426;-78
2021/03/23 01:58:38;;;;;;;18.20;8.75;;;7.00;95.60;;;;;;4996680;28;20557;-81
2021/03/23 02:01:06;;;;;;;20.10;10.52;;;7.00;95.60;;;;;;5017288;28;20029;-78
2021/03/23 02:03:31;;;;;;;17.63;10.13;;;7.00;96.50;;;;;;5002077;28;20029;-78
2021/03/23 02:05:59;;;;;;;17.08;9.32;;;7.00;96.30;;;;;;5003810;28;20029;-78
2021/03/23 02:08:26;;;;;;;18.00;10.05;;;7.00;96.10;;;;;;5002964;28;20387;-77
2021/03/23 02:10:53;;;;;;;20.13;10.88;;;7.00;95.80;;;;;;5001531;28;20031;-77
2021/03/23 02:13:22;;;;;;;17.88;9.48;;;7.00;96.30;;;;;;5009213;28;20080;-78
2021/03/23 02:15:48;;;;;;;19.35;9.73;;;7.00;96.20;;;;;;5005736;28;20103;-80
2021/03/23 02:18:23;;;;;;;17.25;9.82;;;7.00;96.20;;;;;;5007099;28;20732;-79
2021/03/23 02:21:01;;;;;;;19.35;10.48;;;6.90;95.60;;;;;;5002610;28;20507;-80
2021/03/23 02:23:36;;;;;;;19.52;10.02;;;6.90;95.40;;;;;;5009160;28;20030;-78
2021/03/23 02:26:05;;;;;;;17.40;9.98;;;6.90;95.40;;;;;;5006903;28;20040;-78
2021/03/23 02:28:39;;;;;;;20.15;10.30;;;6.90;95.30;;;;;;5006231;28;20045;-78
2021/03/23 02:31:06;;;;;;;19.63;10.27;;;6.90;95.70;;;;;;5003725;28;20036;-78
2021/03/23 02:33:32;;;;;;;19.35;10.50;;;8.00;96.30;;;;;;5010616;28;20038;-79
2021/03/23 02:35:57;;;;;;;18.63;9.45;;;10.20;96.90;;;;;;5014379;28;20055;-80
2021/03/23 02:38:23;;;;;;;16.95;10.13;;;6.90;95.60;;;;;;5013116;28;20034;-78
2021/03/23 02:40:49;;;;;;;18.13;8.73;;;6.90;96.30;;;;;;5008802;28;20026;-79
2021/03/23 02:43:14;;;;;;;18.05;10.00;;;6.90;96.20;;;;;;5019616;28;20492;-78
2021/03/23 02:45:48;;;;;;;20.90;10.57;;;6.90;96.30;;;;;;5005691;28;20049;-78
2021/03/23 02:48:14;;;;;;;16.73;9.13;;;6.90;96.60;;;;;;5006191;28;20033;-77
2021/03/23 02:50:39;;;;;;;19.80;9.48;;;6.90;96.80;;;;;;5005912;28;20486;-78
2021/03/23 02:53:05;;;;;;;19.98;9.25;;;6.80;97.10;;;;;;5005171;28;20034;-78
2021/03/23 02:55:31;;;;;;;17.83;9.25;;;6.80;97.70;;;;;;5002790;28;20894;-78
2021/03/23 02:57:56;;;;;;;17.02;9.27;;;6.70;98.10;;;;;;5007585;28;20030;-77
2021/03/23 03:00:23;;;;;;;19.73;10.05;;;6.70;98.40;;;;;;5019937;28;20030;-77
2021/03/23 03:02:49;;;;;;;21.75;11.00;;;;;;;;;;5002211;28;20072;-77
2021/03/23 03:05:17;;;;;;;17.77;9.57;;;6.70;98.40;;;;;;5010574;28;20045;-79
2021/03/23 03:07:43;;;;;;;19.33;10.32;;;6.60;98.60;;;;;;5011573;28;20022;-77
2021/03/23 03:10:09;;;;;;;18.30;10.63;;;6.70;98.70;;;;;;5001934;28;20037;-79
2021/03/23 03:12:34;;;;;;;17.67;9.45;;;6.60;98.90;;;;;;5003575;28;20021;-78
2021/03/23 03:17:36;;;;;;;16.70;9.45;;;;;;;;;;5636993;22;20075;-80
2021/03/23 03:20:05;;;;;;;17.27;9.35;;;7.20;98.40;;;;;;5040065;28;20400;-78
2021/03/23 03:22:31;;;;;;;20.80;10.00;;;;;;;;;;5046057;28;20060;-77
2021/03/23 03:24:57;;;;;;;16.35;9.23;;;6.60;98.80;;;;;;5064135;28;20572;-76
2021/03/23 03:27:22;;;;;;;18.65;9.60;;;6.60;98.80;;;;;;5041741;28;20026;-75
2021/03/23 03:29:48;;;;;;;19.05;10.18;;;6.60;98.70;;;;;;5017674;28;20033;-75
2021/03/23 03:32:13;;;;;;;17.10;9.23;;;6.60;98.80;;;;;;5028280;28;20022;-76
2021/03/23 03:34:39;;;;;;;17.85;9.00;;;6.60;98.50;;;;;;5036434;28;20084;-77
2021/03/23 03:37:07;;;;;;;18.25;9.88;;;6.60;98.10;;;;;;5046971;28;20029;-76
2021/03/23 03:39:33;;;;;;;19.40;10.40;;;8.60;98.50;;;;;;5049379;28;20052;-78
2021/03/23 03:41:59;;;;;;;18.92;10.52;;;6.60;97.90;;;;;;5050617;28;20017;-79
2021/03/23 03:44:25;;;;;;;19.40;10.52;;;6.70;97.70;;;;;;5029142;28;20097;-77
2021/03/23 03:46:50;;;;;;;19.83;10.27;;;6.60;97.90;;;;;;5028736;28;20091;-77
2021/03/23 03:49:16;;;;;;;18.15;9.85;;;6.70;97.50;;;;;;5036214;28;20025;-76
2021/03/23 03:51:41;;;;;;;18.13;9.95;;;8.00;97.60;;;;;;5034735;28;20386;-78
2021/03/23 03:54:07;;;;;;;17.20;10.05;;;6.60;97.50;;;;;;5035557;28;20029;-78
2021/03/23 03:56:33;;;;;;;16.48;9.50;;;6.60;97.80;;;;;;5042678;28;20036;-77
2021/03/23 03:58:58;;;;;;;16.38;9.57;;;6.60;98.10;;;;;;5031678;28;20534;-77
2021/03/23 04:01:24;;;;;;;17.83;10.18;;;6.60;98.00;;;;;;5040942;28;20056;-76
2021/03/23 04:03:50;;;;;;;16.73;9.68;;;6.50;98.20;;;;;;5034271;28;20079;-79
2021/03/23 04:06:15;;;;;;;19.23;10.15;;;6.50;97.90;;;;;;5050726;28;20036;-76
2021/03/23 04:08:41;;;;;;;18.23;9.77;;;6.50;98.00;;;;;;5031416;28;20033;-77
2021/03/23 04:11:08;;;;;;;15.07;9.38;;;6.50;98.50;;;;;;5026821;28;20029;-78
2021/03/23 04:13:35;;;;;;;19.23;10.52;;;6.50;98.30;;;;;;5029372;28;20499;-78
2021/03/23 04:16:01;;;;;;;18.98;10.75;;;6.50;98.20;;;;;;5033590;28;20040;-76
2021/03/23 04:18:28;;;;;;;17.00;10.13;;;6.50;97.20;;;;;;5030720;28;20044;-77
2021/03/23 04:20:56;;;;;;;17.63;9.32;;;6.60;96.80;;;;;;5032431;28;20076;-76
2021/03/23 04:23:36;;;;;;;17.33;9.63;;;6.60;95.80;;;;;;5032502;28;20406;-77
2021/03/23 04:26:04;;;;;;;16.05;9.23;;;6.60;96.00;;;;;;5033268;28;20029;-79
2021/03/23 04:28:30;;;;;;;15.13;8.85;;;;;;;;;;5030005;28;20037;-77
2021/03/23 04:30:56;;;;;;;16.30;9.73;;;6.60;95.60;;;;;;5029948;28;20531;-78
2021/03/23 04:33:24;;;;;;;19.30;9.63;;;6.60;95.70;;;;;;5042450;28;20545;-77
2021/03/23 04:36:02;;;;;;;17.00;9.70;;;6.60;95.90;;;;;;5026491;28;20044;-76
2021/03/23 04:38:30;;;;;;;18.63;9.98;;;6.60;95.70;;;;;;5027848;28;20531;-77
2021/03/23 04:40:57;;;;;;;20.00;9.65;;;6.60;95.80;;;;;;5028502;28;20786;-76
2021/03/23 04:43:25;;;;;;;17.83;9.68;;;6.60;96.20;;;;;;5032411;28;20487;-77
2021/03/23 04:45:51;;;;;;;17.67;10.18;;;6.60;96.40;;;;;;5042695;28;20478;-76
2021/03/23 04:48:17;;;;;;;16.75;9.40;;;6.60;96.40;;;;;;5025786;28;20030;-78
2021/03/23 04:50:42;;;;;;;16.70;9.40;;;6.60;96.30;;;;;;5023060;28;20060;-77
2021/03/23 04:53:18;;;;;;;17.77;9.23;;;7.70;96.40;;;;;;5035291;28;20029;-77
2021/03/23 04:55:44;;;;;;;17.38;9.30;;;;;;;;;;5034350;28;20036;-76
2021/03/23 04:58:09;;;;;;;18.77;9.35;;;6.60;95.70;;;;;;5026045;28;20037;-77
2021/03/23 05:00:35;;;;;;;15.05;8.13;;;6.60;95.40;;;;;;5032954;28;20057;-77
2021/03/23 05:03:01;;;;;;;18.85;10.23;;;6.60;95.50;;;;;;5034406;28;20034;-76
2021/03/23 05:05:26;;;;;;;18.15;9.63;;;6.60;95.90;;;;;;5035205;28;20029;-78
2021/03/23 05:07:52;;;;;;;20.38;10.02;;;6.60;95.80;;;;;;5031584;28;20479;-78
2021/03/23 05:10:17;;;;;;;19.27;9.52;;;6.60;96.00;;;;;;5028254;28;20034;-77
2021/03/23 05:12:43;;;;;;;17.75;9.68;;;6.60;96.20;;;;;;5035541;28;20057;-75
2021/03/23 05:15:09;;;;;;;18.48;9.90;;;6.70;96.20;;;;;;5035380;28;20025;-75
2021/03/23 05:17:35;;;;;;;18.38;10.02;;;;;;;;;;5029867;28;20093;-79
2021/03/23 05:20:02;;;;;;;18.80;9.55;;;6.60;95.80;;;;;;5037598;28;20029;-76
2021/03/23 05:22:28;;;;;;;15.57;9.15;;;;;;;;;;5035621;28;20033;-78
2021/03/23 05:24:53;;;;;;;17.70;9.55;;;6.60;96.50;;;;;;5049003;28;20143;-78
2021/03/23 05:27:19;;;;;;;20.67;10.45;;;;;;;;;;5029576;28;20390;-77
2021/03/23 05:29:45;;;;;;;19.35;10.73;;;;;;;;;;5044886;28;20033;-76
2021/03/23 05:32:11;;;;;;;17.40;9.48;;;6.60;96.70;;;;;;5032199;28;20083;-78
2021/03/23 05:34:39;;;;;;;16.95;9.38;;;6.50;97.00;;;;;;5028696;28;20461;-76
2021/03/23 05:37:05;;;;;;;18.08;8.77;;;6.50;96.90;;;;;;5032072;28;20029;-78
2021/03/23 05:39:30;;;;;;;21.88;10.20;;;6.50;96.90;;;;;;5028517;28;20037;-77
2021/03/23 05:42:02;;;;;;;17.83;9.07;;;6.50;96.70;;;;;;5038667;28;20038;-80
2021/03/23 05:44:34;;;;;;;19.35;10.15;;;6.50;96.70;;;;;;5028827;28;20122;-79
2021/03/23 05:47:00;;;;;;;19.02;9.45;;;6.50;96.70;;;;;;5021041;28;20959;-80
2021/03/23 05:49:35;;;;;;;19.10;9.70;;;6.50;96.20;;;;;;5026241;28;20035;-80
2021/03/23 05:52:23;;;;;;;21.00;10.05;;;6.50;96.40;;;;;;5011780;28;20086;-78
2021/03/23 05:55:34;;;;;;;16.67;9.15;;;6.50;96.50;;;;;;5041587;28;20429;-78
2021/03/23 05:58:00;;;;;;;;;;;6.50;96.00;;;;;;5039686;28;20037;-78
2021/03/23 06:00:38;;;;;;;20.48;10.10;;;6.50;96.10;;;;;;5027627;28;19995;-78
2021/03/23 06:03:28;;;;;;;19.23;10.27;;;6.50;96.20;;;;;;5036780;28;20057;-77
2021/03/23 06:06:16;;;;;;;19.20;10.40;;;6.50;96.10;;;;;;5031003;28;20465;-79
2021/03/23 06:08:42;;;;;;;22.10;10.65;;;6.60;96.10;;;;;;5055041;28;20483;-77
2021/03/23 06:11:33;;;;;;;21.30;10.05;;;6.60;96.10;;;;;;5027137;28;20054;-80
2021/03/23 06:14:24;;;;;;;18.90;10.05;;;6.60;96.10;;;;;;5005865;28;20033;-79
2021/03/23 06:16:58;;;;;;;16.42;9.35;;;6.70;96.30;;;;;;5021722;28;20430;-79
2021/03/23 06:19:57;;;;;;;17.60;9.55;;;6.70;96.30;;;;;;5024243;28;20033;-78
2021/03/23 06:22:28;;;;;;;19.60;10.32;;;6.80;95.00;;;;;;4986367;28;20029;-77
2021/03/23 06:25:00;;;;;;;18.15;9.93;;;6.80;95.20;;;;;;5044262;28;20029;-76
2021/03/23 06:27:36;;;;;;;20.23;9.63;;;6.80;94.30;;;;;;5021886;28;20046;-77
2021/03/23 06:30:20;;;;;;;17.25;9.65;;;6.80;94.70;;;;;;5037301;28;20034;-78
2021/03/23 06:32:51;;;;;;;17.35;9.60;;;6.80;93.70;;;;;;5043583;28;20033;-79
2021/03/23 06:35:26;;;;;;;18.80;10.15;;;6.80;93.50;;;;;;5029195;28;20120;-79
2021/03/23 06:37:51;;;;;;;21.73;10.43;;;6.80;93.50;;;;;;5025078;28;20325;-79
2021/03/23 06:40:30;;;;;;;18.60;10.27;;;6.90;93.70;;;;;;5026847;28;20030;-78
2021/03/23 06:43:13;;;;;;;20.35;10.38;;;6.90;93.10;;;;;;5029703;28;20042;-78
2021/03/23 06:45:39;;;;;;;21.05;10.38;;;6.90;93.20;;;;;;5017134;28;20071;-77
2021/03/23 06:48:29;;;;;;;20.17;10.57;;;6.90;93.40;;;;;;5021578;28;20065;-78
2021/03/23 06:51:14;;;;;;;16.40;9.60;;;6.90;93.20;;;;;;5025700;28;20037;-78
2021/03/23 06:53:41;;;;;;;31.67;10.50;;;7.00;92.80;;;;;;5027606;28;20033;-79
2021/03/23 06:56:27;;;;;;;19.88;10.25;;;7.10;92.80;;;;;;5020882;28;20044;-79
2021/03/23 06:59:14;;;;;;;17.50;9.82;;;7.10;92.80;;;;;;5025541;28;21261;-80
2021/03/23 07:01:48;;;;;;;18.92;9.95;;;7.20;92.80;;;;;;5039175;28;20022;-78
2021/03/23 07:04:38;;;;;;;18.05;9.25;;;7.20;92.40;;;;;;5027631;28;20030;-79
2021/03/23 07:07:20;;;;;;;34.88;12.18;;;7.20;92.40;;;;;;5022754;28;20029;-79
2021/03/23 07:09:58;;;;;;;20.45;10.23;;;7.20;92.60;;;;;;5040781;28;20033;-78
2021/03/23 07:12:42;;;;;;;19.95;10.02;;;7.30;92.30;;;;;;5020481;28;20510;-79
2021/03/23 07:15:19;;;;;;;20.95;10.55;;;7.30;92.00;;;;;;5016293;28;20034;-80
2021/03/23 07:18:04;;;;;;;20.48;11.00;;;7.30;92.30;;;;;;5017270;28;20045;-81
2021/03/23 07:20:29;;;;;;;20.45;10.20;;;;;;;;;;5019331;28;20041;-79
2021/03/23 07:22:55;;;;;;;22.08;11.02;;;7.40;92.10;;;;;;5024309;28;20049;-78
2021/03/23 07:25:32;;;;;;;19.98;11.10;;;7.40;91.50;;;;;;5021272;28;20044;-77
2021/03/23 07:28:28;;;;;;;20.60;10.40;;;7.50;91.40;;;;;;5020651;28;20033;-80
2021/03/23 07:31:12;;;;;;;18.67;10.40;;;7.50;91.50;;;;;;5014190;28;20071;-81
2021/03/23 07:33:59;;;;;;;20.85;10.45;;;7.70;90.80;;;;;;5015971;28;20089;-80
2021/03/23 07:36:57;;;;;;;23.63;10.45;;;7.70;90.90;;;;;;5019974;28;20034;-78
2021/03/23 07:39:35;;;;;;;22.00;10.90;;;7.70;90.30;;;;;;5034045;28;20038;-78
2021/03/23 07:42:07;;;;;;;23.00;10.85;;;7.70;90.60;;;;;;5017107;28;20033;-79
2021/03/23 07:44:53;;;;;;;24.48;10.15;;;7.70;90.60;;;;;;5012928;28;20029;-78
2021/03/23 07:47:38;;;;;;;20.67;10.82;;;7.80;90.20;;;;;;5031261;28;20067;-79
2021/03/23 07:50:15;;;;;;;21.80;11.63;;;7.90;89.80;;;;;;5017738;28;20037;-79
2021/03/23 07:53:04;;;;;;;25.40;11.35;;;7.90;89.70;;;;;;5021764;28;20033;-79
2021/03/23 07:55:34;;;;;;;23.98;11.35;;;7.90;90.00;;;;;;5012606;28;20040;-79
2021/03/23 07:58:35;;;;;;;21.92;10.85;;;7.90;90.40;;;;;;5024170;28;20029;-79
2021/03/23 08:01:24;;;;;;;21.02;9.90;;;8.10;89.60;;;;;;5015497;28;20034;-77
2021/03/23 08:04:04;;;;;;;22.48;9.95;;;8.20;88.80;;;;;;5024064;28;20083;-79
2021/03/23 08:06:53;;;;;;;18.45;9.63;;;8.20;87.30;;;;;;5014376;28;20029;-78
2021/03/23 08:10:11;;;;;;;20.98;10.45;;;8.50;87.00;;;;;;5017095;28;20531;-80
2021/03/23 08:13:13;;;;;;;20.33;9.73;;;8.50;85.80;;;;;;5015207;28;20033;-77
2021/03/23 08:16:14;;;;;;;17.27;8.98;;;8.70;83.50;;;;;;5031004;28;20384;-77
2021/03/23 08:19:17;;;;;;;16.55;9.02;;;8.70;83.70;;;;;;4970082;28;20060;-80
2021/03/23 08:22:34;;;;;;;16.63;9.32;;;8.60;83.90;;;;;;5001162;28;20036;-78
2021/03/23 08:25:11;;;;;;;18.05;8.35;;;8.50;84.90;;;;;;5030627;28;20082;-81
2021/03/23 08:28:14;;;;;;;20.38;9.30;;;8.80;83.50;;;;;;5009024;28;20108;-80
2021/03/23 08:30:51;;;;;;;18.40;9.88;;;8.80;82.40;;;;;;5013082;28;20038;-79
2021/03/23 08:33:25;;;;;;;16.17;9.05;;;8.70;82.80;;;;;;5012928;28;20756;-78
2021/03/23 08:35:50;;;;;;;16.95;9.80;;;8.90;79.10;;;;;;5017924;28;20036;-80
2021/03/23 08:38:22;;;;;;;18.83;8.73;;;9.00;77.60;;;;;;5013261;28;20042;-80
2021/03/23 08:41:02;;;;;;;18.52;9.60;;;9.10;78.10;;;;;;5011852;28;20030;-78
2021/03/23 08:43:37;;;;;;;20.38;10.15;;;9.00;77.30;;;;;;5005597;28;20034;-80
2021/03/23 08:46:37;;;;;;;16.52;9.45;;;9.00;77.00;;;;;;5027424;28;20036;-78
2021/03/23 08:49:06;;;;;;;15.43;8.77;;;9.10;76.60;;;;;;5026332;28;20124;-78
2021/03/23 08:51:38;;;;;;;15.50;8.57;;;9.20;75.50;;;;;;5009013;28;20373;-79
2021/03/23 08:54:06;;;;;;;15.48;8.27;;;9.20;73.90;;;;;;5011180;28;20460;-82
2021/03/23 08:56:48;;;;;;;17.75;8.77;;;9.20;74.30;;;;;;5018816;28;20029;-79
2021/03/23 08:59:34;;;;;;;17.02;8.25;;;9.30;73.10;;;;;;5013815;28;20033;-78
2021/03/23 09:02:20;;;;;;;14.18;8.95;;;9.30;73.30;;;;;;5011949;28;20391;-76
2021/03/23 09:04:57;;;;;;;17.50;9.40;;;9.30;73.60;;;;;;4999086;28;20033;-78
2021/03/23 09:07:28;;;;;;;14.82;8.57;;;9.10;74.30;;;;;;5011595;28;20029;-79
2021/03/23 09:09:53;;;;;;;;;;;9.20;73.50;;;;;;5010535;28;20702;-79
2021/03/23 09:12:42;;;;;;;15.95;9.90;;;10.40;76.10;;;;;;5011243;28;20392;-79
2021/03/23 09:15:26;;;;;;;15.00;8.88;;;9.10;74.50;;;;;;5011196;28;20079;-78
2021/03/23 09:18:01;;;;;;;16.23;8.93;;;9.10;72.60;;;;;;5010494;28;20030;-79
2021/03/23 09:20:34;;;;;;;15.13;8.95;;;9.20;72.90;;;;;;5013575;28;20032;-81
2021/03/23 09:23:18;;;;;;;14.77;8.52;;;9.20;71.80;;;;;;5016937;28;20434;-79
2021/03/23 09:25:55;;;;;;;18.70;9.32;;;9.00;72.50;;;;;;5008886;28;20399;-79
2021/03/23 09:31:16;;;;;;;18.95;9.25;;;9.40;73.80;;;;;;5024338;28;20048;-81
2021/03/23 09:33:51;;;;;;;18.55;9.35;;;9.20;73.30;;;;;;5020283;28;20044;-78
2021/03/23 09:36:23;;;;;;;16.02;8.98;;;9.50;71.30;;;;;;5015277;28;20021;-81
2021/03/23 09:38:59;;;;;;;16.75;8.85;;;9.50;71.50;;;;;;5014856;28;20038;-79
2021/03/23 09:41:38;;;;;;;17.15;9.65;;;10.20;69.00;;;;;;5017413;28;20025;-78
2021/03/23 09:44:07;;;;;;;19.67;10.05;;;10.20;69.60;;;;;;5014378;28;20026;-79
2021/03/23 09:46:32;;;;;;;18.48;9.57;;;10.60;68.00;;;;;;5029227;28;20021;-82
2021/03/23 09:49:28;;;;;;;17.05;8.82;;;11.30;62.40;;;;;;5011850;28;20041;-80
2021/03/23 09:52:06;;;;;;;19.67;8.10;;;11.20;62.20;;;;;;5015197;28;20032;-78
2021/03/23 09:55:00;;;;;;;16.88;9.35;;;11.50;63.80;;;;;;5042129;28;20091;-79
2021/03/23 09:57:31;;;;;;;15.68;9.02;;;11.40;63.80;;;;;;5022529;28;20026;-80
2021/03/23 10:00:00;;;;;;;16.75;10.15;;;11.70;62.10;;;;;;5008733;28;20573;-80
2021/03/23 10:02:35;;;;;;;16.73;9.57;;;11.40;62.50;;;;;;5013263;28;20041;-79
2021/03/23 10:05:22;;;;;;;18.25;9.55;;;11.50;62.10;;;;;;5015865;28;20483;-81
2021/03/23 10:07:50;;;;;;;18.70;10.25;;;11.10;62.80;;;;;;5016568;28;20109;-79
2021/03/23 10:10:26;;;;;;;21.42;10.25;;;10.90;62.90;;;;;;5010461;28;20034;-81
2021/03/23 10:12:53;;;;;;;19.38;10.43;;;10.60;64.90;;;;;;5015740;28;20502;-78
2021/03/23 10:15:28;;;;;;;18.73;9.75;;;10.50;65.20;;;;;;5015311;28;20025;-80
2021/03/23 10:18:19;;;;;;;17.02;9.15;;;10.30;65.60;;;;;;5012012;28;20384;-79
2021/03/23 10:20:47;;;;;;;18.77;9.90;;;10.30;66.30;;;;;;5029179;28;20030;-78
2021/03/23 10:23:13;;;;;;;17.08;9.55;;;10.40;65.80;;;;;;5025249;28;20062;-84
2021/03/23 10:25:43;;;;;;;15.80;9.15;;;10.50;64.10;;;;;;5025431;28;20093;-78
2021/03/23 10:28:23;;;;;;;16.00;9.30;;;10.70;64.70;;;;;;5029637;28;20130;-83
2021/03/23 10:30:56;;;;;;;15.50;8.45;;;11.10;62.50;;;;;;5029527;28;20026;-80
2021/03/23 10:33:25;;;;;;;15.13;8.63;;;11.10;62.90;;;;;;5015696;28;20716;-80
2021/03/23 10:35:57;;;;;;;18.02;9.05;;;11.40;60.90;;;;;;5016800;28;20158;-75
2021/03/23 10:38:34;;;;;;;16.55;8.73;;;11.40;61.30;;;;;;5019043;28;20037;-79
2021/03/23 10:41:23;;;;;;;15.88;9.45;;;11.60;60.30;;;;;;5020104;28;20025;-82
2021/03/23 10:44:09;;;;;;;16.20;8.95;;;11.60;60.50;;;;;;5019145;28;20133;-77
2021/03/23 10:46:41;;;;;;;15.60;9.07;;;11.60;60.20;;;;;;5017879;28;20045;-79
2021/03/23 10:49:28;;;;;;;13.70;8.35;;;11.90;58.20;;;;;;5018263;28;20044;-81
2021/03/23 10:52:14;;;;;;;20.10;9.02;;;11.40;58.90;;;;;;5027536;28;20041;-80
2021/03/23 10:54:40;;;;;;;16.70;8.70;;;11.10;59.90;;;;;;5033777;28;20160;-85
2021/03/23 10:57:31;;;;;;;19.40;9.73;;;10.80;60.70;;;;;;5016425;28;20664;-77
2021/03/23 11:00:34;;;;;;;18.02;9.02;;;10.80;60.50;;;;;;5028577;28;20087;-77
2021/03/23 11:03:30;;;;;;;17.08;8.00;;;10.80;61.10;;;;;;5031966;28;20057;-77
2021/03/23 11:05:56;;;;;;;15.68;8.63;;;11.10;60.60;;;;;;5016388;28;20025;-78
2021/03/23 11:08:21;;;;;;;15.25;8.52;;;11.40;59.50;;;;;;5018712;28;20028;-77
2021/03/23 11:10:48;;;;;;;17.70;9.60;;;12.40;60.70;;;;;;5019197;28;20025;-78
2021/03/23 11:13:15;;;;;;;15.63;8.82;;;11.80;59.00;;;;;;5018748;28;20026;-77
2021/03/23 11:15:43;;;;;;;20.92;9.48;;;11.90;58.80;;;;;;5020485;28;20037;-80
2021/03/23 11:18:30;;;;;;;19.13;9.15;;;12.10;57.30;;;;;;5017472;28;20075;-77
2021/03/23 11:20:58;;;;;;;15.95;9.05;;;12.30;56.80;;;;;;5018557;28;20914;-77
2021/03/23 11:23:33;;;;;;;17.90;9.23;;;12.40;56.50;;;;;;5020805;28;20032;-80
2021/03/23 11:25:59;;;;;;;16.05;8.95;;;12.30;56.90;;;;;;5011620;28;20839;-79
2021/03/23 11:28:26;;;;;;;15.65;8.75;;;12.30;56.00;;;;;;5011787;28;20078;-80
2021/03/23 11:30:52;;;;;;;17.27;9.05;;;11.90;56.90;;;;;;5016134;28;20029;-79
2021/03/23 11:33:18;;;;;;;18.63;9.25;;;12.00;56.80;;;;;;5018106;28;20025;-76
2021/03/23 11:35:48;;;;;;;13.35;7.47;;;13.70;57.50;;;;;;5016099;28;20076;-83
2021/03/23 11:38:14;;;;;;;16.10;7.50;;;13.70;56.30;;;;;;5016364;28;20439;-75
2021/03/23 11:40:41;;;;;;;14.15;8.20;;;12.40;55.40;;;;;;5020309;28;20040;-81
2021/03/23 11:43:11;;;;;;;15.15;8.40;;;12.40;55.70;;;;;;5016859;28;20025;-78
2021/03/23 11:45:43;;;;;;;17.50;8.07;;;12.30;55.50;;;;;;5043172;28;20029;-81
2021/03/23 11:48:12;;;;;;;20.75;9.18;;;12.10;56.10;;;;;;5013849;28;20036;-77
2021/03/23 11:50:41;;;;;;;18.70;8.55;;;12.00;56.50;;;;;;5020268;28;20033;-76
2021/03/23 11:53:07;;;;;;;16.45;8.23;;;12.20;56.90;;;;;;5019199;28;20123;-81
2021/03/23 11:55:36;;;;;;;19.38;9.13;;;12.10;55.50;;;;;;5037499;28;20080;-78
2021/03/23 11:58:04;;;;;;;18.65;9.40;;;12.20;55.80;;;;;;5020822;28;20022;-78
2021/03/23 12:00:31;;;;;;;16.88;8.88;;;11.80;67.10;;;;;;5019089;28;20048;-78
2021/03/23 12:02:59;;;;;;;15.48;8.43;;;12.00;55.80;;;;;;5021904;28;20025;-80
2021/03/23 12:05:25;;;;;;;15.82;9.02;;;12.10;55.70;;;;;;5022081;28;20357;-77
2021/03/23 12:08:00;;;;;;;16.35;8.25;;;;;;;;;;5030924;28;20096;-79
2021/03/23 12:10:32;;;;;;;27.55;10.13;;;12.50;54.80;;;;;;5015139;28;20045;-79
2021/03/23 12:13:07;;;;;;;16.75;8.55;;;12.60;56.00;;;;;;5019527;28;20113;-79
2021/03/23 12:15:37;;;;;;;15.90;7.90;;;12.60;55.30;;;;;;5037998;28;20503;-78
2021/03/23 12:18:08;;;;;;;15.90;8.20;;;12.50;54.20;;;;;;5017888;28;20122;-81
2021/03/23 12:20:36;;;;;;;15.10;8.18;;;;;;;;;;5022049;28;20108;-81
2021/03/23 12:23:02;;;;;;;16.40;7.60;;;;;;;;;;5035504;28;20792;-82
2021/03/23 12:25:28;;;;;;;18.77;8.05;;;12.30;61.10;;;;;;5018949;28;20151;-79
2021/03/23 12:27:56;;;;;;;13.27;7.38;;;;;;;;;;5023945;28;20036;-80
2021/03/23 12:30:24;;;;;;;16.13;8.20;;;12.30;68.00;;;;;;5024112;28;20445;-78
2021/03/23 12:32:57;;;;;;;17.58;8.63;;;11.70;56.10;;;;;;5035936;28;20034;-83
2021/03/23 12:35:28;;;;;;;15.85;7.57;;;11.90;56.40;;;;;;5009667;28;21582;-80
2021/03/23 12:38:00;;;;;;;16.88;8.30;;;12.30;55.70;;;;;;5014524;28;20033;-81
2021/03/23 12:40:27;;;;;;;16.10;7.68;;;12.60;54.50;;;;;;5011439;28;20037;-77
2021/03/23 12:42:54;;;;;;;18.67;8.10;;;12.90;54.20;;;;;;5010903;28;20026;-80
2021/03/23 12:45:24;;;;;;;17.40;8.30;;;12.80;54.40;;;;;;5016225;28;20273;-80
2021/03/23 12:47:53;;;;;;;15.77;7.88;;;13.00;53.40;;;;;;5010448;28;20558;-81
2021/03/23 12:50:19;;;;;;;13.95;7.70;;;13.10;52.70;;;;;;5022144;28;20084;-78
2021/03/23 12:52:45;;;;;;;14.95;7.40;;;13.10;62.10;;;;;;5012650;28;20579;-77
2021/03/23 12:55:22;;;;;;;17.05;8.35;;;13.00;52.90;;;;;;5009518;28;20144;-84
2021/03/23 12:57:52;;;;;;;15.88;8.63;;;12.60;53.80;;;;;;5027243;28;20710;-78
2021/03/23 13:00:26;;;;;;;13.57;8.02;;;12.70;54.50;;;;;;5012652;28;20053;-79
2021/03/23 13:02:52;;;;;;;13.98;7.50;;;12.80;54.40;;;;;;5012750;28;20021;-83
2021/03/23 13:05:19;;;;;;;14.05;7.90;;;12.70;53.90;;;;;;5011317;28;20021;-81
2021/03/23 13:07:45;;;;;;;16.30;8.88;;;12.50;54.10;;;;;;5016125;28;20021;-81
2021/03/23 13:10:23;;;;;;;14.30;8.15;;;12.20;55.90;;;;;;5014117;28;20037;-80
2021/03/23 13:12:49;;;;;;;16.00;7.75;;;12.20;55.80;;;;;;5026603;28;20033;-81
2021/03/23 13:15:15;;;;;;;15.52;8.07;;;12.20;55.90;;;;;;5014651;28;20036;-79
2021/03/23 13:17:41;;;;;;;16.40;7.70;;;12.20;56.20;;;;;;5014744;28;20041;-79
2021/03/23 13:20:07;;;;;;;15.77;8.20;;;12.50;55.70;;;;;;5013640;28;20342;-79